Terminal Aerodrome Forecast
Issued by NWS

Home | Current Version | Previous Version | Text Only | Print | Product List | Glossary On
Versions: 1 2 3 4 5 6 7 8 9 10 11 12 13
000
FTUS42 TJSJ 232334
TAFJBQ
TAF
TJBQ 232334Z 2400/2424 VRB04KT P6SM OVC070
     FM241500 08008KT P6SM VCSH SCT018 BKN025 OVC045
     FM242300 10005KT P6SM VCSH SCT030 BKN050=

USA.gov is the U.S. government's official web portal to all federal, state and local government web resources and services.